sensor_id;sensor_type;location;lat;lon;timestamp;P1;durP1;ratioP1;P2;durP2;ratioP2
21671;SDS011;10997;52.242;8.168;2023-08-01T00:00:02;8.05;;;7.35;;
21671;SDS011;10997;52.242;8.168;2023-08-01T00:05:05;9.20;;;7.88;;
21671;SDS011;10997;52.242;8.168;2023-08-01T00:10:06;9.02;;;8.13;;
21671;SDS011;10997;52.242;8.168;2023-08-01T00:15:07;8.68;;;7.88;;
21671;SDS011;10997;52.242;8.168;2023-08-01T00:20:08;9.07;;;7.88;;
21671;SDS011;10997;52.242;8.168;2023-08-01T00:25:09;7.90;;;7.10;;
21671;SDS011;10997;52.242;8.168;2023-08-01T00:30:10;7.13;;;6.43;;
21671;SDS011;10997;52.242;8.168;2023-08-01T00:35:11;7.30;;;5.55;;
21671;SDS011;10997;52.242;8.168;2023-08-01T00:40:11;5.50;;;4.70;;
21671;SDS011;10997;52.242;8.168;2023-08-01T00:45:12;4.95;;;3.60;;
21671;SDS011;10997;52.242;8.168;2023-08-01T00:50:13;3.63;;;3.20;;
21671;SDS011;10997;52.242;8.168;2023-08-01T00:55:14;3.50;;;2.97;;
21671;SDS011;10997;52.242;8.168;2023-08-01T01:00:15;2.58;;;2.38;;
21671;SDS011;10997;52.242;8.168;2023-08-01T01:05:16;4.60;;;3.08;;
21671;SDS011;10997;52.242;8.168;2023-08-01T01:10:17;4.78;;;3.40;;
21671;SDS011;10997;52.242;8.168;2023-08-01T01:15:18;4.93;;;3.10;;
21671;SDS011;10997;52.242;8.168;2023-08-01T01:20:24;6.68;;;3.55;;
21671;SDS011;10997;52.242;8.168;2023-08-01T01:25:25;4.55;;;3.67;;
21671;SDS011;10997;52.242;8.168;2023-08-01T01:30:26;5.53;;;3.70;;
21671;SDS011;10997;52.242;8.168;2023-08-01T01:35:28;5.15;;;3.70;;
21671;SDS011;10997;52.242;8.168;2023-08-01T01:40:32;6.18;;;3.63;;
21671;SDS011;10997;52.242;8.168;2023-08-01T01:45:33;5.72;;;3.80;;
21671;SDS011;10997;52.242;8.168;2023-08-01T01:50:35;9.18;;;3.78;;
21671;SDS011;10997;52.242;8.168;2023-08-01T01:55:35;7.95;;;3.55;;
21671;SDS011;10997;52.242;8.168;2023-08-01T02:00:36;6.95;;;3.65;;
21671;SDS011;10997;52.242;8.168;2023-08-01T02:05:36;5.07;;;3.20;;
21671;SDS011;10997;52.242;8.168;2023-08-01T02:10:37;5.05;;;3.33;;
21671;SDS011;10997;52.242;8.168;2023-08-01T02:15:38;4.80;;;3.45;;
21671;SDS011;10997;52.242;8.168;2023-08-01T02:20:39;5.07;;;3.30;;
21671;SDS011;10997;52.242;8.168;2023-08-01T02:25:39;4.35;;;3.92;;
21671;SDS011;10997;52.242;8.168;2023-08-01T02:30:41;5.05;;;4.20;;
21671;SDS011;10997;52.242;8.168;2023-08-01T02:35:42;9.10;;;5.63;;
21671;SDS011;10997;52.242;8.168;2023-08-01T02:40:42;8.65;;;6.20;;
21671;SDS011;10997;52.242;8.168;2023-08-01T02:45:43;8.07;;;6.88;;
21671;SDS011;10997;52.242;8.168;2023-08-01T02:50:43;12.88;;;7.70;;
21671;SDS011;10997;52.242;8.168;2023-08-01T02:55:45;12.90;;;9.55;;
21671;SDS011;10997;52.242;8.168;2023-08-01T03:00:46;12.02;;;10.05;;
21671;SDS011;10997;52.242;8.168;2023-08-01T03:05:47;15.35;;;10.73;;
21671;SDS011;10997;52.242;8.168;2023-08-01T03:10:48;12.90;;;10.13;;
21671;SDS011;10997;52.242;8.168;2023-08-01T03:15:49;14.80;;;10.75;;
21671;SDS011;10997;52.242;8.168;2023-08-01T03:20:49;15.15;;;12.30;;
21671;SDS011;10997;52.242;8.168;2023-08-01T03:25:50;18.65;;;14.30;;
21671;SDS011;10997;52.242;8.168;2023-08-01T03:30:50;21.90;;;15.70;;
21671;SDS011;10997;52.242;8.168;2023-08-01T03:35:53;22.33;;;16.02;;
21671;SDS011;10997;52.242;8.168;2023-08-01T03:40:55;23.85;;;15.85;;
21671;SDS011;10997;52.242;8.168;2023-08-01T03:45:55;23.52;;;15.50;;
21671;SDS011;10997;52.242;8.168;2023-08-01T03:50:56;18.17;;;13.73;;
21671;SDS011;10997;52.242;8.168;2023-08-01T03:55:57;14.95;;;12.73;;
21671;SDS011;10997;52.242;8.168;2023-08-01T04:00:57;14.25;;;11.15;;
21671;SDS011;10997;52.242;8.168;2023-08-01T04:05:58;15.32;;;10.57;;
21671;SDS011;10997;52.242;8.168;2023-08-01T04:10:58;16.02;;;10.77;;
21671;SDS011;10997;52.242;8.168;2023-08-01T04:15:59;15.60;;;12.23;;
21671;SDS011;10997;52.242;8.168;2023-08-01T04:21:01;18.63;;;13.68;;
21671;SDS011;10997;52.242;8.168;2023-08-01T04:26:02;21.33;;;13.50;;
21671;SDS011;10997;52.242;8.168;2023-08-01T04:31:06;18.42;;;13.18;;
21671;SDS011;10997;52.242;8.168;2023-08-01T04:36:06;18.58;;;13.18;;
21671;SDS011;10997;52.242;8.168;2023-08-01T04:41:07;20.73;;;13.70;;
21671;SDS011;10997;52.242;8.168;2023-08-01T04:46:08;18.92;;;12.95;;
21671;SDS011;10997;52.242;8.168;2023-08-01T04:51:08;21.60;;;13.98;;
21671;SDS011;10997;52.242;8.168;2023-08-01T04:56:09;21.30;;;13.45;;
21671;SDS011;10997;52.242;8.168;2023-08-01T05:01:09;25.58;;;14.10;;
21671;SDS011;10997;52.242;8.168;2023-08-01T05:06:10;28.25;;;14.77;;
21671;SDS011;10997;52.242;8.168;2023-08-01T05:11:10;20.98;;;14.20;;
21671;SDS011;10997;52.242;8.168;2023-08-01T05:16:11;24.50;;;14.23;;
21671;SDS011;10997;52.242;8.168;2023-08-01T05:21:12;27.05;;;14.38;;
21671;SDS011;10997;52.242;8.168;2023-08-01T05:26:12;21.55;;;13.15;;
21671;SDS011;10997;52.242;8.168;2023-08-01T05:31:13;20.10;;;11.80;;
21671;SDS011;10997;52.242;8.168;2023-08-01T05:36:13;21.52;;;11.95;;
21671;SDS011;10997;52.242;8.168;2023-08-01T05:41:14;22.23;;;11.70;;
21671;SDS011;10997;52.242;8.168;2023-08-01T05:46:15;18.17;;;10.38;;
21671;SDS011;10997;52.242;8.168;2023-08-01T05:51:15;15.60;;;9.80;;
21671;SDS011;10997;52.242;8.168;2023-08-01T05:56:16;16.80;;;9.32;;
21671;SDS011;10997;52.242;8.168;2023-08-01T06:01:17;20.35;;;9.70;;
21671;SDS011;10997;52.242;8.168;2023-08-01T06:06:18;19.13;;;9.20;;
21671;SDS011;10997;52.242;8.168;2023-08-01T06:11:18;20.30;;;9.10;;
21671;SDS011;10997;52.242;8.168;2023-08-01T06:16:19;19.05;;;9.15;;
21671;SDS011;10997;52.242;8.168;2023-08-01T06:21:19;19.02;;;9.73;;
21671;SDS011;10997;52.242;8.168;2023-08-01T06:26:20;22.73;;;10.57;;
21671;SDS011;10997;52.242;8.168;2023-08-01T06:31:21;21.95;;;10.43;;
21671;SDS011;10997;52.242;8.168;2023-08-01T06:36:21;26.50;;;11.30;;
21671;SDS011;10997;52.242;8.168;2023-08-01T06:46:59;19.45;;;11.32;;
21671;SDS011;10997;52.242;8.168;2023-08-01T06:52:00;18.45;;;9.05;;
21671;SDS011;10997;52.242;8.168;2023-08-01T06:57:01;17.15;;;9.27;;
21671;SDS011;10997;52.242;8.168;2023-08-01T07:02:01;15.88;;;9.98;;
21671;SDS011;10997;52.242;8.168;2023-08-01T07:07:02;17.23;;;9.48;;
21671;SDS011;10997;52.242;8.168;2023-08-01T07:12:03;13.45;;;9.73;;
21671;SDS011;10997;52.242;8.168;2023-08-01T07:17:04;15.70;;;9.23;;
21671;SDS011;10997;52.242;8.168;2023-08-01T07:22:05;14.73;;;7.85;;
21671;SDS011;10997;52.242;8.168;2023-08-01T07:27:05;10.00;;;5.70;;
21671;SDS011;10997;52.242;8.168;2023-08-01T07:32:06;11.27;;;5.53;;
21671;SDS011;10997;52.242;8.168;2023-08-01T07:37:07;11.45;;;6.00;;
21671;SDS011;10997;52.242;8.168;2023-08-01T07:42:08;12.30;;;6.30;;
21671;SDS011;10997;52.242;8.168;2023-08-01T07:47:08;11.15;;;6.13;;
21671;SDS011;10997;52.242;8.168;2023-08-01T07:52:09;9.70;;;4.80;;
21671;SDS011;10997;52.242;8.168;2023-08-01T07:57:09;12.13;;;5.90;;
21671;SDS011;10997;52.242;8.168;2023-08-01T08:02:11;15.60;;;6.28;;
21671;SDS011;10997;52.242;8.168;2023-08-01T08:07:11;10.55;;;5.53;;
21671;SDS011;10997;52.242;8.168;2023-08-01T08:12:12;13.02;;;5.97;;
21671;SDS011;10997;52.242;8.168;2023-08-01T08:17:12;22.48;;;6.65;;
21671;SDS011;10997;52.242;8.168;2023-08-01T08:22:13;17.13;;;6.10;;
21671;SDS011;10997;52.242;8.168;2023-08-01T08:27:14;14.13;;;5.95;;
21671;SDS011;10997;52.242;8.168;2023-08-01T08:32:14;13.07;;;5.35;;
21671;SDS011;10997;52.242;8.168;2023-08-01T08:37:15;10.38;;;4.75;;
21671;SDS011;10997;52.242;8.168;2023-08-01T08:42:17;14.25;;;6.53;;
21671;SDS011;10997;52.242;8.168;2023-08-01T08:47:18;11.00;;;6.22;;
21671;SDS011;10997;52.242;8.168;2023-08-01T08:52:24;12.27;;;5.93;;
21671;SDS011;10997;52.242;8.168;2023-08-01T08:57:25;13.25;;;6.05;;
21671;SDS011;10997;52.242;8.168;2023-08-01T09:02:26;14.25;;;5.97;;
21671;SDS011;10997;52.242;8.168;2023-08-01T09:07:29;15.35;;;6.55;;
21671;SDS011;10997;52.242;8.168;2023-08-01T09:12:33;11.00;;;5.20;;
21671;SDS011;10997;52.242;8.168;2023-08-01T09:17:35;12.75;;;4.95;;
21671;SDS011;10997;52.242;8.168;2023-08-01T09:22:45;12.57;;;5.05;;
21671;SDS011;10997;52.242;8.168;2023-08-01T09:27:46;9.65;;;4.80;;
21671;SDS011;10997;52.242;8.168;2023-08-01T09:32:53;10.30;;;5.32;;
21671;SDS011;10997;52.242;8.168;2023-08-01T09:37:54;13.27;;;5.32;;
21671;SDS011;10997;52.242;8.168;2023-08-01T09:43:00;12.95;;;5.30;;
21671;SDS011;10997;52.242;8.168;2023-08-01T09:48:01;12.90;;;4.80;;
21671;SDS011;10997;52.242;8.168;2023-08-01T09:53:09;9.45;;;4.75;;
21671;SDS011;10997;52.242;8.168;2023-08-01T09:58:09;11.25;;;5.03;;
21671;SDS011;10997;52.242;8.168;2023-08-01T10:03:12;8.13;;;4.38;;
21671;SDS011;10997;52.242;8.168;2023-08-01T10:08:14;9.85;;;4.30;;
21671;SDS011;10997;52.242;8.168;2023-08-01T10:13:16;14.57;;;4.80;;
21671;SDS011;10997;52.242;8.168;2023-08-01T10:18:17;9.27;;;4.47;;
21671;SDS011;10997;52.242;8.168;2023-08-01T10:23:18;9.60;;;4.50;;
21671;SDS011;10997;52.242;8.168;2023-08-01T10:28:19;11.35;;;3.92;;
21671;SDS011;10997;52.242;8.168;2023-08-01T10:33:34;9.20;;;3.78;;
21671;SDS011;10997;52.242;8.168;2023-08-01T10:38:43;8.13;;;3.92;;
21671;SDS011;10997;52.242;8.168;2023-08-01T10:43:48;10.18;;;3.20;;
21671;SDS011;10997;52.242;8.168;2023-08-01T10:48:52;7.30;;;3.33;;
21671;SDS011;10997;52.242;8.168;2023-08-01T10:53:53;11.63;;;4.95;;
21671;SDS011;10997;52.242;8.168;2023-08-01T10:58:54;9.73;;;5.30;;
21671;SDS011;10997;52.242;8.168;2023-08-01T11:03:54;10.63;;;4.80;;
21671;SDS011;10997;52.242;8.168;2023-08-01T11:08:55;13.98;;;4.82;;
21671;SDS011;10997;52.242;8.168;2023-08-01T11:13:55;9.63;;;5.63;;
21671;SDS011;10997;52.242;8.168;2023-08-01T11:18:56;9.43;;;4.65;;
21671;SDS011;10997;52.242;8.168;2023-08-01T11:23:57;9.40;;;4.22;;
21671;SDS011;10997;52.242;8.168;2023-08-01T11:29:01;7.70;;;3.60;;
21671;SDS011;10997;52.242;8.168;2023-08-01T11:34:04;7.03;;;3.60;;
21671;SDS011;10997;52.242;8.168;2023-08-01T11:39:05;6.85;;;3.10;;
21671;SDS011;10997;52.242;8.168;2023-08-01T11:44:05;6.30;;;2.72;;
21671;SDS011;10997;52.242;8.168;2023-08-01T11:49:06;8.48;;;3.03;;
21671;SDS011;10997;52.242;8.168;2023-08-01T11:54:08;6.82;;;2.95;;
21671;SDS011;10997;52.242;8.168;2023-08-01T11:59:12;9.73;;;2.83;;
21671;SDS011;10997;52.242;8.168;2023-08-01T12:04:25;9.18;;;3.55;;
21671;SDS011;10997;52.242;8.168;2023-08-01T12:09:30;7.55;;;3.05;;
21671;SDS011;10997;52.242;8.168;2023-08-01T12:14:32;9.03;;;3.00;;
21671;SDS011;10997;52.242;8.168;2023-08-01T12:19:33;7.82;;;2.95;;
21671;SDS011;10997;52.242;8.168;2023-08-01T12:24:36;7.78;;;3.25;;
21671;SDS011;10997;52.242;8.168;2023-08-01T12:29:37;6.57;;;2.97;;
21671;SDS011;10997;52.242;8.168;2023-08-01T12:34:38;5.35;;;2.00;;
21671;SDS011;10997;52.242;8.168;2023-08-01T12:39:38;4.45;;;1.60;;
21671;SDS011;10997;52.242;8.168;2023-08-01T12:44:39;6.30;;;2.33;;
21671;SDS011;10997;52.242;8.168;2023-08-01T12:49:40;5.65;;;2.30;;
21671;SDS011;10997;52.242;8.168;2023-08-01T12:54:40;6.18;;;2.30;;
21671;SDS011;10997;52.242;8.168;2023-08-01T12:59:41;5.60;;;1.95;;
21671;SDS011;10997;52.242;8.168;2023-08-01T13:04:41;4.43;;;1.73;;
21671;SDS011;10997;52.242;8.168;2023-08-01T13:09:42;3.22;;;1.70;;
21671;SDS011;10997;52.242;8.168;2023-08-01T13:14:43;4.93;;;1.88;;
21671;SDS011;10997;52.242;8.168;2023-08-01T13:19:43;3.92;;;1.90;;
21671;SDS011;10997;52.242;8.168;2023-08-01T13:24:45;4.78;;;2.00;;
21671;SDS011;10997;52.242;8.168;2023-08-01T13:29:46;4.93;;;1.98;;
21671;SDS011;10997;52.242;8.168;2023-08-01T13:34:50;6.90;;;2.35;;
21671;SDS011;10997;52.242;8.168;2023-08-01T13:39:50;4.00;;;2.08;;
21671;SDS011;10997;52.242;8.168;2023-08-01T13:44:51;2.63;;;1.60;;
21671;SDS011;10997;52.242;8.168;2023-08-01T13:49:54;5.45;;;1.40;;
21671;SDS011;10997;52.242;8.168;2023-08-01T13:54:54;4.25;;;1.73;;
21671;SDS011;10997;52.242;8.168;2023-08-01T13:59:55;7.20;;;2.00;;
21671;SDS011;10997;52.242;8.168;2023-08-01T14:04:55;4.50;;;1.73;;
21671;SDS011;10997;52.242;8.168;2023-08-01T14:09:56;5.53;;;1.67;;
21671;SDS011;10997;52.242;8.168;2023-08-01T14:14:57;4.18;;;1.98;;
21671;SDS011;10997;52.242;8.168;2023-08-01T14:19:57;3.55;;;1.73;;
21671;SDS011;10997;52.242;8.168;2023-08-01T14:25:05;5.20;;;2.10;;
21671;SDS011;10997;52.242;8.168;2023-08-01T14:30:07;3.70;;;1.65;;
21671;SDS011;10997;52.242;8.168;2023-08-01T14:35:08;4.30;;;1.77;;
21671;SDS011;10997;52.242;8.168;2023-08-01T14:40:09;6.28;;;1.90;;
21671;SDS011;10997;52.242;8.168;2023-08-01T14:45:10;6.25;;;2.25;;
21671;SDS011;10997;52.242;8.168;2023-08-01T14:50:13;5.75;;;1.90;;
21671;SDS011;10997;52.242;8.168;2023-08-01T14:55:14;6.40;;;2.08;;
21671;SDS011;10997;52.242;8.168;2023-08-01T15:00:15;5.25;;;1.90;;
21671;SDS011;10997;52.242;8.168;2023-08-01T15:05:16;6.80;;;2.15;;
21671;SDS011;10997;52.242;8.168;2023-08-01T15:10:17;4.88;;;2.00;;
21671;SDS011;10997;52.242;8.168;2023-08-01T15:15:17;7.28;;;2.05;;
21671;SDS011;10997;52.242;8.168;2023-08-01T15:20:18;5.72;;;2.10;;
21671;SDS011;10997;52.242;8.168;2023-08-01T15:25:19;6.28;;;2.00;;
21671;SDS011;10997;52.242;8.168;2023-08-01T15:30:19;4.85;;;1.52;;
21671;SDS011;10997;52.242;8.168;2023-08-01T15:35:20;3.85;;;1.90;;
21671;SDS011;10997;52.242;8.168;2023-08-01T15:40:28;5.57;;;1.98;;
21671;SDS011;10997;52.242;8.168;2023-08-01T15:45:28;5.80;;;1.65;;
21671;SDS011;10997;52.242;8.168;2023-08-01T15:50:29;4.28;;;1.70;;
21671;SDS011;10997;52.242;8.168;2023-08-01T15:55:29;4.72;;;1.80;;
21671;SDS011;10997;52.242;8.168;2023-08-01T16:00:30;3.67;;;1.70;;
21671;SDS011;10997;52.242;8.168;2023-08-01T16:05:32;5.28;;;1.90;;
21671;SDS011;10997;52.242;8.168;2023-08-01T16:10:33;6.20;;;1.80;;
21671;SDS011;10997;52.242;8.168;2023-08-01T16:15:33;5.90;;;1.60;;
21671;SDS011;10997;52.242;8.168;2023-08-01T16:20:35;5.75;;;1.80;;
21671;SDS011;10997;52.242;8.168;2023-08-01T16:25:36;6.28;;;2.05;;
21671;SDS011;10997;52.242;8.168;2023-08-01T16:30:37;5.55;;;1.88;;
21671;SDS011;10997;52.242;8.168;2023-08-01T16:35:37;6.70;;;2.10;;
21671;SDS011;10997;52.242;8.168;2023-08-01T16:40:38;9.00;;;2.17;;
21671;SDS011;10997;52.242;8.168;2023-08-01T16:45:39;5.53;;;1.90;;
21671;SDS011;10997;52.242;8.168;2023-08-01T16:50:39;6.10;;;1.67;;
21671;SDS011;10997;52.242;8.168;2023-08-01T16:55:40;4.53;;;1.80;;
21671;SDS011;10997;52.242;8.168;2023-08-01T17:00:41;5.95;;;2.10;;
21671;SDS011;10997;52.242;8.168;2023-08-01T17:05:41;8.55;;;1.92;;
21671;SDS011;10997;52.242;8.168;2023-08-01T17:10:42;6.32;;;1.73;;
21671;SDS011;10997;52.242;8.168;2023-08-01T17:15:43;4.95;;;1.70;;
21671;SDS011;10997;52.242;8.168;2023-08-01T17:20:43;6.20;;;1.58;;
21671;SDS011;10997;52.242;8.168;2023-08-01T17:25:45;5.72;;;1.60;;
21671;SDS011;10997;52.242;8.168;2023-08-01T17:30:45;8.32;;;1.75;;
21671;SDS011;10997;52.242;8.168;2023-08-01T17:35:46;5.85;;;1.58;;
21671;SDS011;10997;52.242;8.168;2023-08-01T17:40:46;4.75;;;1.50;;
21671;SDS011;10997;52.242;8.168;2023-08-01T17:45:47;4.50;;;1.67;;
21671;SDS011;10997;52.242;8.168;2023-08-01T17:50:48;4.18;;;1.65;;
21671;SDS011;10997;52.242;8.168;2023-08-01T17:55:48;6.45;;;1.70;;
21671;SDS011;10997;52.242;8.168;2023-08-01T18:00:50;5.00;;;1.40;;
21671;SDS011;10997;52.242;8.168;2023-08-01T18:05:52;6.03;;;1.63;;
21671;SDS011;10997;52.242;8.168;2023-08-01T18:11:13;10.15;;;1.83;;
21671;SDS011;10997;52.242;8.168;2023-08-01T18:16:18;3.80;;;1.63;;
21671;SDS011;10997;52.242;8.168;2023-08-01T18:21:19;7.22;;;1.63;;
21671;SDS011;10997;52.242;8.168;2023-08-01T18:26:21;5.78;;;1.70;;
21671;SDS011;10997;52.242;8.168;2023-08-01T18:31:23;4.30;;;1.48;;
21671;SDS011;10997;52.242;8.168;2023-08-01T18:36:24;4.15;;;1.60;;
21671;SDS011;10997;52.242;8.168;2023-08-01T18:41:28;6.10;;;1.90;;
21671;SDS011;10997;52.242;8.168;2023-08-01T18:46:28;4.75;;;1.40;;
21671;SDS011;10997;52.242;8.168;2023-08-01T18:51:30;6.40;;;1.77;;
21671;SDS011;10997;52.242;8.168;2023-08-01T18:56:32;2.92;;;1.50;;
21671;SDS011;10997;52.242;8.168;2023-08-01T19:01:32;5.00;;;1.65;;
21671;SDS011;10997;52.242;8.168;2023-08-01T19:06:33;5.50;;;1.73;;
21671;SDS011;10997;52.242;8.168;2023-08-01T19:11:34;7.25;;;1.80;;
21671;SDS011;10997;52.242;8.168;2023-08-01T19:16:35;5.60;;;1.80;;
21671;SDS011;10997;52.242;8.168;2023-08-01T19:21:35;6.68;;;1.60;;
21671;SDS011;10997;52.242;8.168;2023-08-01T19:26:36;9.82;;;2.08;;
21671;SDS011;10997;52.242;8.168;2023-08-01T19:31:39;5.00;;;1.70;;
21671;SDS011;10997;52.242;8.168;2023-08-01T19:36:40;5.72;;;1.90;;
21671;SDS011;10997;52.242;8.168;2023-08-01T19:41:41;5.90;;;1.90;;
21671;SDS011;10997;52.242;8.168;2023-08-01T19:46:41;6.75;;;2.00;;
21671;SDS011;10997;52.242;8.168;2023-08-01T19:51:42;5.60;;;1.85;;
21671;SDS011;10997;52.242;8.168;2023-08-01T19:56:43;4.20;;;1.75;;
21671;SDS011;10997;52.242;8.168;2023-08-01T20:01:43;5.05;;;1.90;;
21671;SDS011;10997;52.242;8.168;2023-08-01T20:06:44;6.63;;;2.15;;
21671;SDS011;10997;52.242;8.168;2023-08-01T20:11:44;9.90;;;2.13;;
21671;SDS011;10997;52.242;8.168;2023-08-01T20:16:45;4.10;;;1.80;;
21671;SDS011;10997;52.242;8.168;2023-08-01T20:21:45;6.22;;;1.70;;
21671;SDS011;10997;52.242;8.168;2023-08-01T20:26:46;5.72;;;1.90;;
21671;SDS011;10997;52.242;8.168;2023-08-01T20:31:48;6.60;;;2.20;;
21671;SDS011;10997;52.242;8.168;2023-08-01T20:36:49;7.15;;;1.98;;
21671;SDS011;10997;52.242;8.168;2023-08-01T20:41:50;6.93;;;2.08;;
21671;SDS011;10997;52.242;8.168;2023-08-01T20:46:51;9.18;;;2.00;;
21671;SDS011;10997;52.242;8.168;2023-08-01T20:51:51;4.97;;;1.98;;
21671;SDS011;10997;52.242;8.168;2023-08-01T20:56:52;7.78;;;2.13;;
21671;SDS011;10997;52.242;8.168;2023-08-01T21:01:52;8.52;;;2.25;;
21671;SDS011;10997;52.242;8.168;2023-08-01T21:06:53;7.32;;;2.25;;
21671;SDS011;10997;52.242;8.168;2023-08-01T21:11:53;7.32;;;2.20;;
21671;SDS011;10997;52.242;8.168;2023-08-01T21:16:54;5.93;;;2.08;;
21671;SDS011;10997;52.242;8.168;2023-08-01T21:21:54;7.35;;;2.53;;
21671;SDS011;10997;52.242;8.168;2023-08-01T21:26:55;9.65;;;2.90;;
21671;SDS011;10997;52.242;8.168;2023-08-01T21:31:56;8.43;;;2.45;;
21671;SDS011;10997;52.242;8.168;2023-08-01T21:36:56;8.38;;;2.55;;
21671;SDS011;10997;52.242;8.168;2023-08-01T21:41:57;5.40;;;2.45;;
21671;SDS011;10997;52.242;8.168;2023-08-01T21:46:57;6.90;;;2.53;;
21671;SDS011;10997;52.242;8.168;2023-08-01T21:51:58;9.18;;;2.47;;
21671;SDS011;10997;52.242;8.168;2023-08-01T21:56:58;5.65;;;2.30;;
21671;SDS011;10997;52.242;8.168;2023-08-01T22:02:00;9.10;;;2.63;;
21671;SDS011;10997;52.242;8.168;2023-08-01T22:07:01;7.53;;;2.50;;
21671;SDS011;10997;52.242;8.168;2023-08-01T22:12:02;10.90;;;2.70;;
21671;SDS011;10997;52.242;8.168;2023-08-01T22:17:02;8.93;;;2.35;;
21671;SDS011;10997;52.242;8.168;2023-08-01T22:22:03;8.32;;;2.25;;
21671;SDS011;10997;52.242;8.168;2023-08-01T22:27:04;11.20;;;2.60;;
21671;SDS011;10997;52.242;8.168;2023-08-01T22:32:05;8.00;;;2.15;;
21671;SDS011;10997;52.242;8.168;2023-08-01T22:37:06;9.88;;;2.28;;
21671;SDS011;10997;52.242;8.168;2023-08-01T22:42:07;5.63;;;2.25;;
21671;SDS011;10997;52.242;8.168;2023-08-01T22:47:08;7.88;;;2.53;;
21671;SDS011;10997;52.242;8.168;2023-08-01T22:52:08;7.57;;;2.40;;
21671;SDS011;10997;52.242;8.168;2023-08-01T22:57:09;10.32;;;2.83;;
21671;SDS011;10997;52.242;8.168;2023-08-01T23:02:10;7.68;;;2.78;;
21671;SDS011;10997;52.242;8.168;2023-08-01T23:07:10;6.45;;;2.30;;
21671;SDS011;10997;52.242;8.168;2023-08-01T23:12:11;10.32;;;2.38;;
21671;SDS011;10997;52.242;8.168;2023-08-01T23:17:11;6.80;;;2.45;;
21671;SDS011;10997;52.242;8.168;2023-08-01T23:22:12;7.85;;;2.30;;
21671;SDS011;10997;52.242;8.168;2023-08-01T23:27:13;7.32;;;2.30;;
21671;SDS011;10997;52.242;8.168;2023-08-01T23:32:14;14.13;;;2.50;;
21671;SDS011;10997;52.242;8.168;2023-08-01T23:37:14;9.77;;;2.40;;
21671;SDS011;10997;52.242;8.168;2023-08-01T23:42:15;8.20;;;2.40;;
21671;SDS011;10997;52.242;8.168;2023-08-01T23:47:16;8.10;;;2.75;;
21671;SDS011;10997;52.242;8.168;2023-08-01T23:52:16;10.55;;;2.95;;
21671;SDS011;10997;52.242;8.168;2023-08-01T23:57:17;10.48;;;2.92;;
